Time;durP1;ratioP1;P1;durP2;ratioP2;P2;SDS_P1;SDS_P2;PMS_P1;PMS_P2;Temp;Humidity;BMP_temperature;BMP_pressure;BME280_temperature;BME280_humidity;BME280_pressure;Samples;Min_cycle;Max_cycle;Signal;HPM_P1;HPM_P2
2022/03/17 00:00:46;;;;;;;10.00;6.32;;;;;;;;;;10326369;28;20033;-49
2022/03/17 00:05:47;;;;;;;12.45;6.10;;;;;;;;;;10326336;28;20057;-50
2022/03/17 00:10:48;;;;;;;7.18;5.90;;;;;;;;;;10326609;28;20030;-48
2022/03/17 00:15:49;;;;;;;8.60;6.30;;;;;;;;;;10326048;28;20093;-49
2022/03/17 00:20:49;;;;;;;7.68;5.72;;;;;;;;;;10312576;28;20371;-49
2022/03/17 00:25:50;;;;;;;9.63;5.88;;;;;;;;;;10311290;28;20088;-48
2022/03/17 00:30:50;;;;;;;8.38;6.25;;;;;;;;;;10327054;28;20037;-49
2022/03/17 00:35:51;;;;;;;7.60;5.75;;;;;;;;;;10326351;28;20022;-48
2022/03/17 00:40:52;;;;;;;9.98;6.47;;;;;;;;;;10326426;28;20026;-48
2022/03/17 00:45:52;;;;;;;10.45;5.97;;;;;;;;;;10325391;28;20035;-48
2022/03/17 00:50:53;;;;;;;6.97;6.13;;;;;;;;;;10320907;28;20038;-51
2022/03/17 00:55:53;;;;;;;8.70;5.88;;;;;;;;;;10322895;28;20061;-49
2022/03/17 01:00:54;;;;;;;8.20;5.95;;;;;;;;;;10322031;28;20034;-56
2022/03/17 01:05:55;;;;;;;9.13;5.75;;;;;;;;;;10318340;28;20122;-53
2022/03/17 01:10:55;;;;;;;11.38;5.63;;;;;;;;;;10320825;28;20210;-48
2022/03/17 01:15:56;;;;;;;9.77;6.50;;;;;;;;;;10317005;28;20027;-49
2022/03/17 01:20:57;;;;;;;7.30;5.50;;;;;;;;;;10317882;28;20030;-49
2022/03/17 01:25:58;;;;;;;7.50;5.72;;;;;;;;;;10314970;28;20034;-48
2022/03/17 01:30:59;;;;;;;8.38;5.70;;;;;;;;;;10316982;28;20046;-49
2022/03/17 01:35:59;;;;;;;8.32;5.15;;;;;;;;;;10314881;28;20033;-55
2022/03/17 01:41:00;;;;;;;8.48;5.70;;;;;;;;;;10325281;28;20026;-50
2022/03/17 01:46:01;;;;;;;15.93;6.38;;;;;;;;;;10323878;28;20378;-50
2022/03/17 01:51:01;;;;;;;9.63;5.90;;;;;;;;;;10322264;28;20097;-51
2022/03/17 01:56:03;;;;;;;9.32;5.97;;;;;;;;;;10320241;28;20034;-49
2022/03/17 02:01:04;;;;;;;6.15;5.53;;;;;;;;;;10322176;28;20039;-50
2022/03/17 02:06:05;;;;;;;12.65;6.15;;;;;;;;;;10300311;28;20046;-50
2022/03/17 02:16:27;;;;;;;7.15;5.78;;;;;;;;;;10302997;28;20178;-53
2022/03/17 02:21:29;;;;;;;9.50;5.22;;;;;;;;;;10314314;28;20664;-50
2022/03/17 02:26:31;;;;;;;5.88;5.22;;;;;;;;;;10316126;28;20035;-51
2022/03/17 02:31:32;;;;;;;8.20;5.68;;;;;;;;;;10310074;28;20061;-55
2022/03/17 02:36:32;;;;;;;6.97;5.57;;;;;;;;;;10313180;28;20433;-50
2022/03/17 02:41:34;;;;;;;6.85;4.90;;;;;;;;;;10304777;28;20534;-50
2022/03/17 02:46:34;;;;;;;11.18;6.10;;;;;;;;;;10313295;28;20038;-50
2022/03/17 02:51:35;;;;;;;7.80;5.50;;;;;;;;;;10316082;28;20030;-50
2022/03/17 02:56:36;;;;;;;8.75;5.82;;;;;;;;;;10310307;28;20026;-52
2022/03/17 03:01:36;;;;;;;7.63;5.65;;;;;;;;;;10306421;28;20046;-49
2022/03/17 03:06:37;;;;;;;7.45;5.60;;;;;;;;;;10303755;28;20051;-49
2022/03/17 03:11:38;;;;;;;7.72;5.75;;;;;;;;;;10314458;28;20117;-50
2022/03/17 03:16:39;;;;;;;7.03;6.07;;;;;;;;;;10312219;28;20036;-52
2022/03/17 03:21:39;;;;;;;7.72;5.28;;;;;;;;;;10324842;28;20030;-51
2022/03/17 03:26:41;;;;;;;8.13;5.63;;;;;;;;;;10318849;28;20040;-55
2022/03/17 03:31:41;;;;;;;7.95;5.20;;;;;;;;;;10324757;28;20073;-49
2022/03/17 03:42:03;;;;;;;8.05;5.70;;;;;;;;;;10320183;28;20027;-52
2022/03/17 03:47:07;;;;;;;7.55;5.75;;;;;;;;;;10323983;28;20038;-52
2022/03/17 03:52:10;;;;;;;10.20;5.63;;;;;;;;;;10311151;28;20034;-49
2022/03/17 03:57:11;;;;;;;6.95;5.88;;;;;;;;;;10322711;28;20046;-50
2022/03/17 04:02:12;;;;;;;6.68;5.72;;;;;;;;;;10322845;28;20030;-49
2022/03/17 04:07:12;;;;;;;10.07;5.53;;;;;;;;;;10321649;28;20058;-49
2022/03/17 04:12:14;;;;;;;9.15;5.28;;;;;;;;;;10322618;28;20372;-49
2022/03/17 04:17:14;;;;;;;7.32;5.10;;;;;;;;;;10320922;28;20046;-50
2022/03/17 04:22:15;;;;;;;7.13;5.18;;;;;;;;;;10319400;28;20035;-50
2022/03/17 04:27:16;;;;;;;6.35;4.50;;;;;;;;;;10317659;28;20089;-52
2022/03/17 04:32:16;;;;;;;6.82;5.30;;;;;;;;;;10321650;28;20470;-53
2022/03/17 04:37:17;;;;;;;6.07;4.95;;;;;;;;;;10317951;28;20041;-51
2022/03/17 04:42:17;;;;;;;6.28;5.20;;;;;;;;;;10319587;28;20043;-51
2022/03/17 04:47:18;;;;;;;8.25;5.78;;;;;;;;;;10317684;28;20073;-52
2022/03/17 04:57:38;;;;;;;6.30;5.65;;;;;;;;;;10313008;28;20490;-49
2022/03/17 05:02:38;;;;;;;7.07;5.28;;;;;;;;;;10303405;28;20034;-52
2022/03/17 05:07:39;;;;;;;5.97;4.78;;;;;;;;;;10324176;28;20061;-54
2022/03/17 05:12:39;;;;;;;9.40;5.80;;;;;;;;;;10300790;28;20022;-51
2022/03/17 05:17:40;;;;;;;6.05;5.43;;;;;;;;;;10307764;28;20427;-51
2022/03/17 05:22:42;;;;;;;7.00;5.47;;;;;;;;;;10318734;28;20080;-50
2022/03/17 05:27:45;;;;;;;6.93;5.50;;;;;;;;;;10308851;28;20125;-51
2022/03/17 05:32:47;;;;;;;6.32;4.53;;;;;;;;;;10317355;28;20033;-51
2022/03/17 05:37:48;;;;;;;7.20;5.03;;;;;;;;;;10319856;28;20038;-50
2022/03/17 05:42:53;;;;;;;6.03;5.20;;;;;;;;;;10312375;28;20034;-50
2022/03/17 05:48:03;;;;;;;6.28;5.03;;;;;;;;;;10320885;28;20178;-52
2022/03/17 05:53:06;;;;;;;6.30;5.05;;;;;;;;;;10319372;28;20501;-49
2022/03/17 05:58:07;;;;;;;11.20;5.00;;;;;;;;;;10314703;28;20038;-49
2022/03/17 06:03:07;;;;;;;9.02;4.90;;;;;;;;;;10319161;28;20470;-48
2022/03/17 06:08:08;;;;;;;5.53;4.85;;;;;;;;;;10313503;28;20046;-54
2022/03/17 06:13:09;;;;;;;5.70;4.70;;;;;;;;;;10322490;28;20029;-48
2022/03/17 06:18:11;;;;;;;9.95;5.05;;;;;;;;;;10315357;28;20049;-48
2022/03/17 06:23:12;;;;;;;24.42;5.57;;;;;;;;;;10314322;28;20463;-64
2022/03/17 06:28:14;;;;;;;8.23;4.95;;;;;;;;;;10312652;28;20026;-46
2022/03/17 06:33:16;;;;;;;14.95;5.82;;;;;;;;;;10311939;28;20562;-46
2022/03/17 06:38:16;;;;;;;16.38;5.20;;;;;;;;;;10315654;28;20121;-46
2022/03/17 06:43:17;;;;;;;7.32;5.28;;;;;;;;;;10315980;28;20038;-51
2022/03/17 06:48:18;;;;;;;10.00;5.90;;;;;;;;;;10315707;28;20770;-46
2022/03/17 06:53:18;;;;;;;7.68;5.50;;;;;;;;;;10315759;28;20383;-47
2022/03/17 06:58:19;;;;;;;7.55;5.53;;;;;;;;;;10311933;28;20077;-56
2022/03/17 07:03:20;;;;;;;9.43;5.38;;;;;;;;;;10307193;28;20039;-47
2022/03/17 07:08:20;;;;;;;10.85;6.30;;;;;;;;;;10312687;28;20030;-48
2022/03/17 07:13:21;;;;;;;15.32;6.03;;;;;;;;;;10318048;28;20033;-48
2022/03/17 07:18:21;;;;;;;19.08;7.45;;;;;;;;;;10311271;28;20030;-46
2022/03/17 07:23:22;;;;;;;21.77;8.05;;;;;;;;;;10318219;28;20031;-46
2022/03/17 07:28:23;;;;;;;23.77;7.68;;;;;;;;;;10320285;28;20031;-45
2022/03/17 07:33:23;;;;;;;38.40;8.23;;;;;;;;;;10311749;28;20030;-47
2022/03/17 07:38:24;;;;;;;26.42;8.35;;;;;;;;;;10315709;28;20041;-46
2022/03/17 07:43:25;;;;;;;28.30;9.50;;;;;;;;;;10317559;28;20026;-48
2022/03/17 07:48:25;;;;;;;19.40;8.00;;;;;;;;;;10316471;28;20482;-46
2022/03/17 07:53:26;;;;;;;21.98;7.97;;;;;;;;;;10317515;28;20035;-47
2022/03/17 07:58:27;;;;;;;22.75;9.10;;;;;;;;;;10319975;28;20485;-47
2022/03/17 08:03:28;;;;;;;20.42;9.00;;;;;;;;;;10324325;28;20378;-47
2022/03/17 08:08:28;;;;;;;19.98;8.63;;;;;;;;;;10327966;28;20260;-56
2022/03/17 08:13:29;;;;;;;16.73;8.30;;;;;;;;;;10321385;28;20030;-47
2022/03/17 08:18:32;;;;;;;24.65;8.00;;;;;;;;;;10319089;28;20034;-46
2022/03/17 08:23:33;;;;;;;21.20;8.02;;;;;;;;;;10324916;28;20477;-49
2022/03/17 08:28:34;;;;;;;15.88;8.35;;;;;;;;;;10322004;28;20030;-52
2022/03/17 08:33:34;;;;;;;18.23;8.05;;;;;;;;;;10325847;28;20030;-49
2022/03/17 08:38:35;;;;;;;17.90;8.05;;;;;;;;;;10325151;28;20026;-52
2022/03/17 08:43:35;;;;;;;15.13;7.60;;;;;;;;;;10324023;28;20030;-47
2022/03/17 08:54:02;;;;;;;21.40;8.27;;;;;;;;;;10324403;28;20035;-49
2022/03/17 08:59:04;;;;;;;19.30;7.95;;;;;;;;;;10318532;28;20398;-50
2022/03/17 09:04:05;;;;;;;17.15;7.28;;;;;;;;;;10324446;28;20050;-51
2022/03/17 09:09:06;;;;;;;16.35;7.95;;;;;;;;;;10321627;28;20613;-51
2022/03/17 09:14:07;;;;;;;14.07;7.05;;;;;;;;;;10321165;28;20154;-47
2022/03/17 09:19:08;;;;;;;18.20;7.75;;;;;;;;;;10296709;28;20035;-50
2022/03/17 09:24:09;;;;;;;16.08;7.95;;;;;;;;;;10309845;28;20096;-49
2022/03/17 09:29:10;;;;;;;15.18;7.45;;;;;;;;;;10327266;28;20076;-52
2022/03/17 09:34:11;;;;;;;14.70;6.82;;;;;;;;;;10315138;28;20535;-51
2022/03/17 09:44:30;;;;;;;14.80;7.22;;;;;;;;;;10318536;28;20046;-50
2022/03/17 09:49:33;;;;;;;10.85;6.57;;;;;;;;;;10313238;28;20437;-50
2022/03/17 09:54:35;;;;;;;15.43;7.20;;;;;;;;;;10302661;28;20031;-47
2022/03/17 09:59:35;;;;;;;12.30;7.20;;;;;;;;;;10316584;28;20034;-51
2022/03/17 10:04:36;;;;;;;11.30;6.82;;;;;;;;;;10321262;28;20047;-47
2022/03/17 10:09:36;;;;;;;9.85;6.50;;;;;;;;;;10320680;28;20049;-59
2022/03/17 10:14:42;;;;;;;10.50;7.10;;;;;;;;;;10317158;28;20042;-47
2022/03/17 10:19:43;;;;;;;15.00;7.10;;;;;;;;;;10318240;28;20026;-50
2022/03/17 10:24:52;;;;;;;10.60;6.72;;;;;;;;;;10312052;28;20034;-49
2022/03/17 10:30:03;;;;;;;;;;;;;;;;;;10313427;28;20474;-50
2022/03/17 10:35:08;;;;;;;18.88;7.18;;;;;;;;;;10317575;28;19930;-50
2022/03/17 10:40:11;;;;;;;9.48;6.90;;;;;;;;;;10304552;28;20058;-50
2022/03/17 10:45:12;;;;;;;9.60;6.90;;;;;;;;;;10317488;28;20034;-52
2022/03/17 10:50:22;;;;;;;11.38;7.20;;;;;;;;;;10319093;28;20042;-48
2022/03/17 10:55:29;;;;;;;10.82;6.30;;;;;;;;;;10318347;28;20036;-50
2022/03/17 11:00:31;;;;;;;9.98;6.40;;;;;;;;;;10319415;28;20113;-47
2022/03/17 11:05:32;;;;;;;9.32;7.10;;;;;;;;;;10317038;28;20046;-47
2022/03/17 11:10:33;;;;;;;9.38;5.82;;;;;;;;;;10319216;28;20038;-51
2022/03/17 11:15:34;;;;;;;13.48;6.22;;;;;;;;;;10316737;28;20494;-47
2022/03/17 11:20:35;;;;;;;10.10;6.20;;;;;;;;;;10313895;28;21236;-51
2022/03/17 11:25:36;;;;;;;9.27;5.97;;;;;;;;;;10318397;28;20045;-48
2022/03/17 11:30:47;;;;;;;11.93;6.28;;;;;;;;;;10314779;28;20061;-47
2022/03/17 11:36:07;;;;;;;9.50;6.43;;;;;;;;;;10312129;28;21309;-57
2022/03/17 11:41:21;;;;;;;8.07;5.93;;;;;;;;;;10301255;28;20065;-50
2022/03/17 11:46:25;;;;;;;12.98;6.30;;;;;;;;;;10307787;28;20108;-48
2022/03/17 11:51:26;;;;;;;10.25;5.80;;;;;;;;;;10324439;28;20077;-47
2022/03/17 11:56:47;;;;;;;8.73;5.78;;;;;;;;;;10328170;28;20342;-46
2022/03/17 12:01:48;;;;;;;7.20;5.93;;;;;;;;;;10327132;28;20029;-47
2022/03/17 12:07:10;;;;;;;9.35;6.03;;;;;;;;;;10327211;28;20051;-48
2022/03/17 12:12:27;;;;;;;10.05;6.65;;;;;;;;;;10322697;28;20525;-51
2022/03/17 12:17:29;;;;;;;10.88;5.57;;;;;;;;;;10305791;28;20027;-49
2022/03/17 12:22:32;;;;;;;10.20;6.07;;;;;;;;;;10325014;28;20190;-50
2022/03/17 12:27:35;;;;;;;11.00;6.43;;;;;;;;;;10324351;28;20039;-47
2022/03/17 12:32:46;;;;;;;9.27;5.57;;;;;;;;;;10317183;28;21197;-47
2022/03/17 12:37:47;;;;;;;9.00;6.30;;;;;;;;;;10324338;28;20493;-52
2022/03/17 12:42:53;;;;;;;13.52;6.75;;;;;;;;;;10318038;28;20030;-49
2022/03/17 12:47:56;;;;;;;8.38;5.85;;;;;;;;;;10325729;28;20034;-59
2022/03/17 12:52:57;;;;;;;8.55;5.80;;;;;;;;;;10322945;28;20030;-50
2022/03/17 12:57:58;;;;;;;8.98;5.95;;;;;;;;;;10321718;28;20055;-51
2022/03/17 13:03:01;;;;;;;7.40;6.00;;;;;;;;;;10321485;28;20026;-51
2022/03/17 13:08:02;;;;;;;6.43;5.30;;;;;;;;;;10321025;28;20406;-51
2022/03/17 13:18:23;;;;;;;13.43;6.55;;;;;;;;;;10302334;28;20038;-49
2022/03/17 13:23:35;;;;;;;6.97;5.70;;;;;;;;;;10321704;28;20466;-50
2022/03/17 13:28:36;;;;;;;7.70;6.05;;;;;;;;;;10317244;28;20027;-56
2022/03/17 13:33:36;;;;;;;7.13;5.60;;;;;;;;;;10317765;28;20036;-49
2022/03/17 13:38:37;;;;;;;10.50;6.70;;;;;;;;;;10319070;28;20033;-51
2022/03/17 13:43:38;;;;;;;10.57;6.60;;;;;;;;;;10309395;28;20027;-48
2022/03/17 13:48:39;;;;;;;15.90;8.25;;;;;;;;;;10320811;28;20528;-54
2022/03/17 13:53:40;;;;;;;18.75;9.45;;;;;;;;;;10316513;28;20030;-51
2022/03/17 13:58:43;;;;;;;11.40;8.60;;;;;;;;;;10322625;28;20179;-56
2022/03/17 14:03:47;;;;;;;15.30;8.95;;;;;;;;;;10316879;28;20490;-49
2022/03/17 14:08:52;;;;;;;14.63;8.77;;;;;;;;;;10315832;28;20113;-49
2022/03/17 14:14:12;;;;;;;11.75;8.50;;;;;;;;;;10311686;28;20401;-49
2022/03/17 14:19:14;;;;;;;12.90;8.45;;;;;;;;;;10320546;28;20030;-47
2022/03/17 14:24:15;;;;;;;11.80;9.05;;;;;;;;;;10315797;28;20049;-50
2022/03/17 14:29:18;;;;;;;14.93;9.48;;;;;;;;;;10314290;28;20505;-46
2022/03/17 14:34:22;;;;;;;16.02;8.43;;;;;;;;;;10316775;28;20042;-56
2022/03/17 14:39:22;;;;;;;14.75;8.85;;;;;;;;;;10313134;28;20026;-51
2022/03/17 14:44:23;;;;;;;13.32;8.40;;;;;;;;;;10319607;28;20030;-56
2022/03/17 14:49:24;;;;;;;12.15;8.70;;;;;;;;;;10311363;28;20085;-52
2022/03/17 14:54:24;;;;;;;12.98;8.85;;;;;;;;;;10308136;28;20030;-56
2022/03/17 14:59:25;;;;;;;12.60;8.27;;;;;;;;;;10300997;28;20459;-52
2022/03/17 15:04:26;;;;;;;23.08;9.02;;;;;;;;;;10304340;28;20413;-48
2022/03/17 15:09:26;;;;;;;13.43;8.38;;;;;;;;;;10304027;28;20031;-51
2022/03/17 15:14:27;;;;;;;11.90;8.15;;;;;;;;;;10327988;28;20027;-51
2022/03/17 15:19:28;;;;;;;8.75;7.68;;;;;;;;;;10326488;28;20026;-49
2022/03/17 15:24:29;;;;;;;13.40;8.50;;;;;;;;;;10325148;28;20562;-52
2022/03/17 15:34:48;;;;;;;;;;;;;;;;;;10316026;28;20058;-52
2022/03/17 15:39:49;;;;;;;9.53;7.13;;;;;;;;;;10313082;28;20001;-50
2022/03/17 15:44:49;;;;;;;13.52;7.97;;;;;;;;;;10316159;28;20510;-48
2022/03/17 15:49:50;;;;;;;9.10;7.63;;;;;;;;;;10318352;28;20030;-54
2022/03/17 15:54:51;;;;;;;10.63;7.50;;;;;;;;;;10325847;28;20038;-48
2022/03/17 15:59:51;;;;;;;11.80;7.82;;;;;;;;;;10302170;28;20033;-48
2022/03/17 16:04:52;;;;;;;9.95;8.05;;;;;;;;;;10319805;28;20489;-49
2022/03/17 16:15:11;;;;;;;;;;;;;;;;;;10325975;28;20038;-49
2022/03/17 16:20:13;;;;;;;14.43;7.50;;;;;;;;;;10325629;28;20377;-47
2022/03/17 16:25:14;;;;;;;11.30;7.35;;;;;;;;;;10321043;28;20038;-48
2022/03/17 16:30:14;;;;;;;9.10;7.47;;;;;;;;;;10319355;28;20401;-52
2022/03/17 16:35:15;;;;;;;9.98;7.55;;;;;;;;;;10312498;28;20034;-51
2022/03/17 16:40:17;;;;;;;16.13;8.00;;;;;;;;;;10305144;28;20273;-49
2022/03/17 16:45:18;;;;;;;12.68;6.82;;;;;;;;;;10324470;28;20041;-52
2022/03/17 16:50:20;;;;;;;12.23;6.97;;;;;;;;;;10305066;28;20045;-54
2022/03/17 16:55:26;;;;;;;8.70;6.15;;;;;;;;;;10318585;28;20033;-58
2022/03/17 17:00:29;;;;;;;9.15;6.45;;;;;;;;;;10321700;28;20038;-48
2022/03/17 17:05:30;;;;;;;7.70;6.10;;;;;;;;;;10314630;28;20114;-50
2022/03/17 17:10:31;;;;;;;9.63;7.03;;;;;;;;;;10316815;28;20030;-47
2022/03/17 17:15:32;;;;;;;8.52;6.20;;;;;;;;;;10320676;28;20478;-47
2022/03/17 17:20:34;;;;;;;12.18;6.68;;;;;;;;;;10302966;28;20042;-46
2022/03/17 17:30:54;;;;;;;12.65;6.65;;;;;;;;;;10324519;28;20113;-50
2022/03/17 17:35:55;;;;;;;9.45;6.57;;;;;;;;;;10304765;28;20038;-50
2022/03/17 17:40:56;;;;;;;11.75;6.80;;;;;;;;;;10314663;28;20023;-50
2022/03/17 17:45:57;;;;;;;12.02;6.20;;;;;;;;;;10316480;28;20076;-53
2022/03/17 17:51:03;;;;;;;9.23;6.40;;;;;;;;;;10317608;28;20405;-55
2022/03/17 17:56:07;;;;;;;7.70;6.30;;;;;;;;;;10315599;28;20470;-52
2022/03/17 18:01:08;;;;;;;8.15;6.03;;;;;;;;;;10313178;28;20027;-48
2022/03/17 18:06:09;;;;;;;12.68;6.25;;;;;;;;;;10315827;28;20494;-47
2022/03/17 18:11:09;;;;;;;8.70;5.97;;;;;;;;;;10305404;28;20042;-58
2022/03/17 18:16:12;;;;;;;19.15;7.22;;;;;;;;;;10316646;28;20505;-57
2022/03/17 18:21:12;;;;;;;14.10;6.03;;;;;;;;;;10312338;28;20169;-56
2022/03/17 18:26:14;;;;;;;9.73;5.90;;;;;;;;;;10314755;28;20121;-55
2022/03/17 18:31:17;;;;;;;12.20;5.97;;;;;;;;;;10320319;28;20317;-53
2022/03/17 18:36:18;;;;;;;9.50;6.10;;;;;;;;;;10314187;28;20128;-54
2022/03/17 18:41:19;;;;;;;10.82;6.05;;;;;;;;;;10317549;28;20027;-53
2022/03/17 18:46:19;;;;;;;12.63;6.43;;;;;;;;;;10320147;28;20065;-54
2022/03/17 18:51:20;;;;;;;9.85;6.50;;;;;;;;;;10314019;28;20038;-51
2022/03/17 18:56:20;;;;;;;9.52;6.72;;;;;;;;;;10351606;23;20143;-64
2022/03/17 19:01:21;;;;;;;15.73;7.80;;;;;;;;;;10364530;28;20030;-62
2022/03/17 19:06:22;;;;;;;12.88;7.78;;;;;;;;;;10363202;28;20445;-56
2022/03/17 19:11:23;;;;;;;19.35;7.35;;;;;;;;;;10361373;28;20056;-47
2022/03/17 19:16:25;;;;;;;10.32;6.43;;;;;;;;;;10346986;28;20026;-49
2022/03/17 19:21:26;;;;;;;20.08;7.22;;;;;;;;;;10357608;28;20477;-46
2022/03/17 19:26:27;;;;;;;10.18;7.03;;;;;;;;;;10364465;28;20030;-52
2022/03/17 19:31:28;;;;;;;12.85;6.22;;;;;;;;;;10358430;28;20026;-46
2022/03/17 19:36:29;;;;;;;12.15;6.30;;;;;;;;;;10364621;28;20117;-63
2022/03/17 19:41:31;;;;;;;15.85;6.88;;;;;;;;;;10364631;28;20030;-55
2022/03/17 19:46:32;;;;;;;10.30;6.80;;;;;;;;;;10365125;28;20045;-53
2022/03/17 19:51:33;;;;;;;14.00;6.80;;;;;;;;;;10364198;28;20044;-60
2022/03/17 19:56:34;;;;;;;9.55;5.57;;;;;;;;;;10357012;28;20045;-59
2022/03/17 20:01:35;;;;;;;12.18;6.20;;;;;;;;;;10368034;28;20069;-47
2022/03/17 20:06:35;;;;;;;21.48;7.85;;;;;;;;;;10368608;28;20033;-55
2022/03/17 20:16:55;;;;;;;22.63;8.15;;;;;;;;;;10372735;28;20026;-60
2022/03/17 20:21:56;;;;;;;28.17;8.57;;;;;;;;;;10370517;28;20022;-63
2022/03/17 20:26:57;;;;;;;18.65;7.43;;;;;;;;;;10363330;28;20041;-61
2022/03/17 20:31:57;;;;;;;20.63;8.38;;;;;;;;;;10370930;28;20033;-62
2022/03/17 20:36:59;;;;;;;20.80;7.80;;;;;;;;;;10360841;28;20158;-60
2022/03/17 20:42:00;;;;;;;17.45;7.35;;;;;;;;;;10368153;28;20033;-59
2022/03/17 20:47:01;;;;;;;18.52;7.68;;;;;;;;;;10368895;28;20473;-60
2022/03/17 20:52:03;;;;;;;15.65;7.00;;;;;;;;;;10369600;28;20474;-62
2022/03/17 20:57:06;;;;;;;15.43;7.18;;;;;;;;;;10369346;28;20133;-63
2022/03/17 21:02:08;;;;;;;13.93;7.10;;;;;;;;;;10370282;28;20042;-58
2022/03/17 21:07:08;;;;;;;19.83;7.60;;;;;;;;;;10369190;28;20034;-61
2022/03/17 21:12:09;;;;;;;12.70;7.20;;;;;;;;;;10369382;28;20034;-62
2022/03/17 21:17:10;;;;;;;22.13;7.85;;;;;;;;;;10365434;28;20030;-60
2022/03/17 21:22:11;;;;;;;14.88;7.65;;;;;;;;;;10367781;28;20120;-61
2022/03/17 21:27:11;;;;;;;13.80;7.25;;;;;;;;;;10368037;28;20032;-60
2022/03/17 21:32:12;;;;;;;15.25;7.38;;;;;;;;;;10363359;28;20033;-47
2022/03/17 21:37:14;;;;;;;15.65;7.72;;;;;;;;;;10366724;28;20033;-63
2022/03/17 21:42:14;;;;;;;14.50;8.32;;;;;;;;;;10359189;28;20056;-59
2022/03/17 21:47:15;;;;;;;13.48;6.90;;;;;;;;;;10367666;28;20029;-62
2022/03/17 21:52:16;;;;;;;13.02;7.75;;;;;;;;;;10367422;28;20053;-60
2022/03/17 21:57:19;;;;;;;12.98;7.00;;;;;;;;;;10367769;28;20050;-61
2022/03/17 22:02:20;;;;;;;15.90;7.28;;;;;;;;;;10366762;28;20371;-56
2022/03/17 22:07:24;;;;;;;14.60;7.28;;;;;;;;;;10367189;28;20033;-60
2022/03/17 22:12:24;;;;;;;8.10;5.90;;;;;;;;;;10366939;28;20080;-62
2022/03/17 22:17:25;;;;;;;13.65;7.10;;;;;;;;;;10366989;28;20033;-59
2022/03/17 22:22:25;;;;;;;13.82;7.03;;;;;;;;;;10365879;28;20022;-59
2022/03/17 22:27:26;;;;;;;15.38;7.15;;;;;;;;;;10365450;28;20030;-60
2022/03/17 22:32:26;;;;;;;13.52;7.15;;;;;;;;;;10363392;28;20033;-58
2022/03/17 22:37:27;;;;;;;10.93;6.72;;;;;;;;;;10359670;28;20100;-58
2022/03/17 22:42:28;;;;;;;9.75;6.72;;;;;;;;;;10358718;28;20092;-62
2022/03/17 22:47:28;;;;;;;12.00;6.63;;;;;;;;;;10365783;28;20589;-53
2022/03/17 22:52:30;;;;;;;14.40;6.40;;;;;;;;;;10367108;28;20033;-63
2022/03/17 22:57:31;;;;;;;8.68;6.30;;;;;;;;;;10352694;28;20046;-59
2022/03/17 23:02:31;;;;;;;8.65;6.18;;;;;;;;;;10365065;28;20030;-58
2022/03/17 23:07:32;;;;;;;13.05;6.78;;;;;;;;;;10363767;28;20100;-59
2022/03/17 23:12:32;;;;;;;10.32;6.82;;;;;;;;;;10360298;28;20037;-53
2022/03/17 23:17:34;;;;;;;9.82;6.40;;;;;;;;;;10362055;28;20083;-59
2022/03/17 23:22:34;;;;;;;19.65;7.28;;;;;;;;;;10363605;28;20493;-59
2022/03/17 23:27:36;;;;;;;9.80;6.22;;;;;;;;;;10362395;28;20180;-61
2022/03/17 23:32:39;;;;;;;14.38;6.63;;;;;;;;;;10365971;28;20520;-62
2022/03/17 23:37:40;;;;;;;13.02;6.25;;;;;;;;;;10369735;28;20026;-55
2022/03/17 23:42:41;;;;;;;11.30;6.82;;;;;;;;;;10361639;28;20128;-48
2022/03/17 23:47:42;;;;;;;23.48;8.65;;;;;;;;;;10370542;28;20115;-50
2022/03/17 23:52:43;;;;;;;23.02;8.63;;;;;;;;;;10345724;28;20104;-52
2022/03/17 23:57:45;;;;;;;29.33;9.20;;;;;;;;;;10370481;28;20046;-54
